Main page
METAR-TAF:

METAR-TAF

Airports :

Milas–Bodrum Airport

Bodrum, Turkey

latitude: 37-14-53N, longitude: 027-40-55E, elevation: 6 m

Current weather observation

The report was made 31 minutes ago, at 09:50 UTC
Wind 15 kt from the West
Temperature 31°C
Humidity 49%
Pressure 1003 hPa
Visibility 10 km or more
no clouds below 1500 m and no cumulonimbus

METAR: LTFE 180950Z 26015KT CAVOK 31/19 Q1003 NOSIG RMK RWY10 26014KT

Time: 13:21 (10:21 UTC)

Forecast

The report was made 5 hours and 41 minutes ago, at 04:40 UTC
Forecast valid from 18 at 06 UTC to 19 at 06 UTC
Wind 2 kt from variable directions
Visibility 10 km or more
no clouds below 1500 m and no cumulonimbus
Becoming
from 18 at 08 UTC to 18 at 10 UTC
Wind 16 kt from the West
Few clouds at a height of 3500 ft
Becoming
from 18 at 16 UTC to 18 at 18 UTC
Wind 2 kt from variable directions
Visibility 10 km or more
no clouds below 1500 m and no cumulonimbus

TAF: LTFE 180440Z 1806/1906 VRB02KT CAVOK BECMG 1808/1810 26016KT FEW035 BECMG 1816/1818 VRB02KT CAVOK

Weather observations and forecasts of more than 4000 airports (METAR and TAF reports).

The available stations are represented by yellow and red dots on the map.

Hover mouse over dot to see the name of the station.

Then click to see weather observations and forecasts.

To change the map : click on the green buttons with a black cross to zoom in, on the green button with a dash to zoom out, or on the green arrows for adjacent maps.


METAR-TAF: